createdAt,value
2019-05-11T00:06:50.096Z,14.03
2019-05-11T00:09:25.060Z,13.40
2019-05-11T00:11:56.387Z,15.97
2019-05-11T00:14:51.489Z,15.10
2019-05-11T00:17:22.638Z,13.57
2019-05-11T00:19:56.672Z,12.47
2019-05-11T00:22:38.542Z,12.87
2019-05-11T00:25:10.784Z,13.90
2019-05-11T00:28:20.558Z,14.43
2019-05-11T00:30:50.982Z,12.97
2019-05-11T00:33:19.675Z,14.73
2019-05-11T00:39:02.419Z,14.00
2019-05-11T00:41:34.524Z,14.53
2019-05-11T00:44:11.907Z,16.23
2019-05-11T00:46:43.290Z,12.47
2019-05-11T00:58:50.951Z,15.80
2019-05-11T01:01:20.536Z,14.40
2019-05-11T01:04:08.786Z,15.87
2019-05-11T01:06:41.680Z,16.47
2019-05-11T01:09:13.221Z,15.57
2019-05-11T01:11:42.596Z,16.77
2019-05-11T01:21:11.209Z,13.77
2019-05-11T01:23:48.856Z,15.33
2019-05-11T01:26:18.740Z,15.40
2019-05-11T01:28:48.515Z,14.83
2019-05-11T01:31:18.220Z,12.40
2019-05-11T01:33:47.323Z,13.77
2019-05-11T01:36:16.874Z,14.00
2019-05-11T01:38:46.053Z,14.30
2019-05-11T01:41:18.113Z,14.90
2019-05-11T01:43:48.911Z,13.57
2019-05-11T01:46:20.397Z,15.00
2019-05-11T01:48:49.547Z,16.03
2019-05-11T01:51:22.323Z,14.80
2019-05-11T01:53:51.635Z,16.40
2019-05-11T01:56:21.828Z,18.53
2019-05-11T01:58:51.888Z,16.67
2019-05-11T02:01:21.083Z,16.53
2019-05-11T02:03:50.591Z,16.97
2019-05-11T02:06:20.812Z,14.73
2019-05-11T02:08:52.538Z,16.13
2019-05-11T02:11:41.643Z,19.47
2019-05-11T02:14:10.480Z,16.80
2019-05-11T02:16:40.234Z,17.50
2019-05-11T02:19:17.437Z,14.87
2019-05-11T02:21:47.694Z,15.90
2019-05-11T02:24:18.224Z,19.03
2019-05-11T02:26:49.120Z,16.37
2019-05-11T02:29:22.337Z,18.27
2019-05-11T02:31:50.429Z,14.73
2019-05-11T02:34:27.484Z,12.00
2019-05-11T02:36:57.512Z,17.03
2019-05-11T02:39:32.219Z,20.77
2019-05-11T02:42:03.535Z,15.10
2019-05-11T02:44:52.639Z,12.83
2019-05-11T02:47:24.363Z,9.83
2019-05-11T02:49:53.005Z,8.37
2019-05-11T02:52:27.796Z,7.90
2019-05-11T02:55:02.284Z,7.53
2019-05-11T02:57:33.776Z,7.80
2019-05-11T03:00:05.668Z,6.17
2019-05-11T03:02:39.093Z,8.60
2019-05-11T03:05:12.673Z,7.40
2019-05-11T03:07:48.076Z,7.27
2019-05-11T03:10:19.073Z,5.97
2019-05-11T03:15:39.906Z,8.27
2019-05-11T03:18:12.506Z,9.30
2019-05-11T03:20:43.360Z,13.90
2019-05-11T03:23:14.870Z,14.83
2019-05-11T03:25:45.589Z,17.13
2019-05-11T03:28:17.104Z,15.67
2019-05-11T03:30:51.725Z,19.63
2019-05-11T03:33:22.152Z,18.33
2019-05-11T03:35:52.904Z,19.47
2019-05-11T03:38:22.956Z,24.73
2019-05-11T03:40:53.681Z,24.90
2019-05-11T03:43:25.611Z,27.57
2019-05-11T03:45:56.535Z,25.17
2019-05-11T03:48:27.046Z,25.07
2019-05-11T03:50:59.277Z,27.93
2019-05-11T03:53:48.659Z,25.73
2019-05-11T03:56:18.290Z,27.93
2019-05-11T03:58:50.131Z,22.93
2019-05-11T04:01:24.620Z,23.57
2019-05-11T04:03:53.192Z,23.60
2019-05-11T04:06:21.652Z,25.60
2019-05-11T04:08:54.956Z,26.00
2019-05-11T04:11:23.641Z,22.37
2019-05-11T04:13:52.142Z,26.17
2019-05-11T04:16:20.612Z,24.27
2019-05-11T04:18:50.697Z,24.73
2019-05-11T04:21:20.830Z,22.23
2019-05-11T04:23:49.536Z,24.87
2019-05-11T04:26:18.423Z,25.70
2019-05-11T04:28:48.185Z,23.47
2019-05-11T04:31:16.877Z,19.00
2019-05-11T04:33:45.749Z,20.97
2019-05-11T04:36:14.222Z,25.27
2019-05-11T04:38:42.802Z,24.63
2019-05-11T04:41:11.686Z,27.30
2019-05-11T04:43:43.252Z,30.07
2019-05-11T04:46:11.719Z,30.63
2019-05-11T04:48:43.222Z,28.53
2019-05-11T04:51:12.336Z,29.07
2019-05-11T04:53:41.044Z,24.37
2019-05-11T04:56:09.522Z,28.10
2019-05-11T04:58:38.525Z,22.07
2019-05-11T05:01:06.950Z,24.47
2019-05-11T05:03:40.898Z,22.33
2019-05-11T05:06:22.046Z,23.67
2019-05-11T05:08:38.489Z,27.03
2019-05-11T05:11:06.921Z,20.93
2019-05-11T05:13:35.976Z,23.50
2019-05-11T05:16:04.676Z,20.50
2019-05-11T05:18:37.907Z,20.37
2019-05-11T05:21:06.757Z,18.30
2019-05-11T05:23:38.412Z,18.77
2019-05-11T05:26:07.016Z,16.27
2019-05-11T05:28:35.740Z,18.47
2019-05-11T05:31:23.107Z,20.23
2019-05-11T05:33:51.718Z,16.67
2019-05-11T05:36:20.665Z,14.93
2019-05-11T05:38:49.278Z,17.03
2019-05-11T05:41:17.827Z,16.80
2019-05-11T05:43:46.326Z,17.37
2019-05-11T05:46:16.335Z,15.27
2019-05-11T05:48:45.841Z,18.47
2019-05-11T05:51:16.813Z,28.77
2019-05-11T05:53:45.634Z,15.97
2019-05-11T05:56:14.572Z,13.03
2019-05-11T05:58:43.475Z,13.43
2019-05-11T06:01:13.490Z,11.83
2019-05-11T06:03:42.314Z,13.90
2019-05-11T06:06:11.445Z,14.30
2019-05-11T06:08:43.143Z,14.57
2019-05-11T06:11:10.814Z,14.50
2019-05-11T06:13:44.994Z,18.90
2019-05-11T06:16:10.961Z,16.70
2019-05-11T06:18:39.749Z,18.23
2019-05-11T06:21:08.693Z,16.07
2019-05-11T06:23:56.798Z,19.07
2019-05-11T06:26:25.701Z,18.10
2019-05-11T06:28:54.561Z,18.93
2019-05-11T06:31:27.899Z,16.87
2019-05-11T06:34:01.400Z,18.63
2019-05-11T06:36:30.338Z,16.53
2019-05-11T06:39:53.898Z,18.63
2019-05-11T06:51:09.533Z,14.93
2019-05-11T06:56:42.264Z,19.20
2019-05-11T06:59:15.747Z,19.00
2019-05-11T07:01:51.725Z,18.33
2019-05-11T07:04:41.556Z,18.63
2019-05-11T07:07:05.827Z,18.03
2019-05-11T07:09:42.811Z,20.93
2019-05-11T07:12:22.299Z,20.40
2019-05-11T07:15:07.404Z,24.17
2019-05-11T07:17:46.460Z,22.70
2019-05-11T07:20:18.411Z,22.20
2019-05-11T07:22:52.779Z,22.70
2019-05-11T07:25:35.758Z,22.00
2019-05-11T07:28:43.183Z,24.33
2019-05-11T07:31:17.492Z,30.03
2019-05-11T07:33:49.239Z,27.07
2019-05-11T07:36:22.919Z,29.13
2019-05-11T07:38:51.792Z,26.97
2019-05-11T07:41:25.048Z,27.63
2019-05-11T07:43:58.782Z,30.70
2019-05-11T07:46:43.789Z,25.90
2019-05-11T07:49:03.387Z,27.30
2019-05-11T07:51:34.541Z,23.33
2019-05-11T07:54:08.255Z,26.13
2019-05-11T07:56:43.198Z,27.20
2019-05-11T07:59:18.221Z,29.13
2019-05-11T08:01:49.491Z,29.43
2019-05-11T08:04:32.833Z,32.83
2019-05-11T08:07:10.902Z,28.50
2019-05-11T08:09:45.000Z,33.83
2019-05-11T08:12:22.478Z,29.40
2019-05-11T08:15:02.649Z,28.87
2019-05-11T08:17:34.047Z,30.13
2019-05-11T08:20:08.524Z,25.93
2019-05-11T08:22:42.881Z,34.60
2019-05-11T08:25:18.350Z,30.43
2019-05-11T08:27:52.502Z,32.17
2019-05-11T08:30:32.245Z,28.37
2019-05-11T08:33:09.255Z,27.80
2019-05-11T08:35:50.457Z,22.03
2019-05-11T08:38:25.415Z,25.13
2019-05-11T08:40:59.058Z,24.83
2019-05-11T08:43:40.949Z,23.40
2019-05-11T08:46:13.356Z,22.90
2019-05-11T08:48:47.901Z,20.73
2019-05-11T08:51:27.967Z,23.63
2019-05-11T08:54:00.274Z,23.63
2019-05-11T08:56:38.365Z,17.40
2019-05-11T08:59:10.302Z,17.67
2019-05-11T09:01:45.239Z,19.07
2019-05-11T09:04:18.237Z,15.70
2019-05-11T09:06:53.569Z,14.43
2019-05-11T09:09:30.774Z,13.97
2019-05-11T09:12:10.628Z,14.20
2019-05-11T09:14:39.667Z,12.33
2019-05-11T09:17:15.141Z,14.50
2019-05-11T09:19:54.559Z,13.00
2019-05-11T09:22:32.011Z,12.30
2019-05-11T09:25:09.007Z,11.77
2019-05-11T09:27:43.581Z,13.13
2019-05-11T09:30:18.625Z,13.40
2019-05-11T09:32:52.037Z,13.63
2019-05-11T09:35:29.013Z,12.40
2019-05-11T09:38:02.665Z,14.33
2019-05-11T09:40:32.782Z,17.27
2019-05-11T09:43:07.933Z,17.07
2019-05-11T09:46:08.316Z,17.57
2019-05-11T09:48:59.013Z,15.70
2019-05-11T09:51:31.108Z,21.57
2019-05-11T09:54:02.831Z,19.47
2019-05-11T09:56:37.969Z,21.67
2019-05-11T09:59:08.580Z,22.63
2019-05-11T10:01:41.277Z,22.57
2019-05-11T10:04:12.832Z,24.57
2019-05-11T10:06:43.150Z,22.40
2019-05-11T10:09:13.864Z,23.00
2019-05-11T10:11:48.040Z,20.93
2019-05-11T10:14:23.261Z,21.53
2019-05-11T10:16:55.521Z,17.60
2019-05-11T10:19:25.649Z,20.33
2019-05-11T10:21:54.820Z,21.97
2019-05-11T10:24:24.685Z,21.83
2019-05-11T10:26:53.662Z,19.53
2019-05-11T10:29:23.316Z,21.93
2019-05-11T10:31:58.487Z,22.50
2019-05-11T10:34:35.393Z,21.33
2019-05-11T10:37:08.755Z,21.07
2019-05-11T10:39:39.736Z,22.33
2019-05-11T10:42:12.087Z,24.40
2019-05-11T10:44:49.871Z,22.27
2019-05-11T10:47:20.433Z,23.53
2019-05-11T10:49:59.370Z,18.23
2019-05-11T10:52:28.820Z,20.73
2019-05-11T10:54:58.805Z,21.87
2019-05-11T10:57:30.767Z,22.30
2019-05-11T11:00:01.466Z,17.90
2019-05-11T11:02:32.532Z,20.37
2019-05-11T11:05:01.862Z,18.97
2019-05-11T11:07:38.336Z,19.63
2019-05-11T11:10:08.955Z,20.70
2019-05-11T11:12:45.958Z,15.73
2019-05-11T11:15:18.032Z,22.93
2019-05-11T11:17:48.614Z,23.20
2019-05-11T11:23:12.542Z,20.77
2019-05-11T11:25:42.441Z,21.87
2019-05-11T11:28:11.433Z,23.93
2019-05-11T11:30:42.365Z,20.47
2019-05-11T11:33:13.219Z,27.53
2019-05-11T11:35:42.418Z,31.33
2019-05-11T11:38:18.135Z,39.80
2019-05-11T11:40:48.172Z,36.73
2019-05-11T11:43:19.001Z,44.97
2019-05-11T11:45:48.608Z,45.93
2019-05-11T11:48:18.866Z,47.03
2019-05-11T11:50:49.535Z,47.43
2019-05-11T11:53:22.798Z,49.37
2019-05-11T11:55:54.433Z,47.87
2019-05-11T11:58:27.690Z,46.80
2019-05-11T12:00:59.862Z,41.87
2019-05-11T12:03:29.459Z,47.97
2019-05-11T12:06:00.219Z,46.03
2019-05-11T12:08:29.163Z,42.47
2019-05-11T12:10:59.059Z,46.30
2019-05-11T12:13:29.803Z,46.83
2019-05-11T12:15:59.493Z,51.90
2019-05-11T12:18:32.624Z,51.17
2019-05-11T12:21:01.499Z,48.87
2019-05-11T12:23:33.782Z,44.93
2019-05-11T12:26:02.663Z,45.33
2019-05-11T12:28:32.486Z,49.70
2019-05-11T12:31:03.201Z,46.17
2019-05-11T12:33:32.209Z,46.63
2019-05-11T12:36:09.838Z,46.53
2019-05-11T12:38:38.886Z,47.27
2019-05-11T12:41:15.928Z,51.10
2019-05-11T12:43:55.214Z,48.43
2019-05-11T12:46:32.350Z,52.77
2019-05-11T12:49:01.847Z,51.20
2019-05-11T12:51:31.678Z,40.07
2019-05-11T12:54:02.856Z,42.63
2019-05-11T12:56:32.424Z,37.73
2019-05-11T12:59:02.968Z,32.83
2019-05-11T13:01:34.778Z,33.93
2019-05-11T13:04:08.914Z,39.87
2019-05-11T13:06:41.494Z,34.40
2019-05-11T13:09:13.637Z,35.10
2019-05-11T13:11:43.832Z,31.70
2019-05-11T13:14:12.905Z,34.10
2019-05-11T13:16:41.823Z,31.87
2019-05-11T13:19:17.443Z,37.90
2019-05-11T13:21:49.105Z,37.47
2019-05-11T13:24:28.231Z,37.40
2019-05-11T13:26:59.611Z,34.33
2019-05-11T13:29:28.827Z,34.13
2019-05-11T13:32:04.798Z,39.63
2019-05-11T13:34:47.849Z,38.97
2019-05-11T13:37:15.210Z,35.57
2019-05-11T13:39:54.663Z,39.63
2019-05-11T13:42:29.904Z,40.60
2019-05-11T13:45:03.241Z,43.27
2019-05-11T13:47:48.504Z,38.07
2019-05-11T13:50:08.250Z,42.77
2019-05-11T13:52:39.417Z,41.33
2019-05-11T13:55:12.212Z,41.60
2019-05-11T13:57:42.948Z,42.73
2019-05-11T14:00:12.425Z,44.80
2019-05-11T14:02:45.751Z,39.30
2019-05-11T14:05:18.191Z,37.77
2019-05-11T14:07:48.342Z,34.20
2019-05-11T14:10:18.286Z,30.70
2019-05-11T14:12:49.144Z,32.03
2019-05-11T14:15:21.921Z,33.63
2019-05-11T14:18:04.734Z,30.67
2019-05-11T14:20:23.415Z,31.00
2019-05-11T14:22:53.294Z,25.60
2019-05-11T14:25:22.372Z,26.20
2019-05-11T14:28:08.183Z,30.13
2019-05-11T14:31:08.149Z,26.53
2019-05-11T14:36:22.884Z,25.10
2019-05-11T14:39:00.135Z,21.00
2019-05-11T14:41:38.121Z,22.03
2019-05-11T14:44:28.529Z,22.00
2019-05-11T14:47:24.435Z,22.90
2019-05-11T14:50:05.490Z,20.40
2019-05-11T14:52:49.585Z,24.90
2019-05-11T14:55:25.263Z,22.00
2019-05-11T14:58:01.732Z,19.70
2019-05-11T15:00:42.634Z,20.87
2019-05-11T15:03:09.753Z,19.63
2019-05-11T15:05:41.543Z,18.90
2019-05-11T15:08:17.846Z,21.57
2019-05-11T15:10:48.802Z,18.20
2019-05-11T15:13:21.460Z,19.07
2019-05-11T15:15:55.277Z,20.57
2019-05-11T15:18:38.651Z,22.30
2019-05-11T15:21:04.738Z,21.30
2019-05-11T15:23:37.773Z,21.17
2019-05-11T15:26:10.144Z,20.40
2019-05-11T15:28:40.098Z,21.27
2019-05-11T15:31:27.713Z,17.37
2019-05-11T15:34:01.836Z,18.53
2019-05-11T15:36:38.423Z,17.90
2019-05-11T15:39:09.920Z,19.00
2019-05-11T15:41:47.813Z,16.33
2019-05-11T15:44:18.072Z,13.60
2019-05-11T15:46:51.438Z,14.73
2019-05-11T15:49:23.992Z,17.17
2019-05-11T15:51:57.768Z,14.40
2019-05-11T15:54:28.829Z,13.30
2019-05-11T15:56:59.933Z,14.77
2019-05-11T15:59:30.536Z,16.27
2019-05-11T16:02:12.411Z,17.53
2019-05-11T16:04:41.708Z,16.57
2019-05-11T16:07:18.789Z,13.17
2019-05-11T16:09:49.228Z,15.23
2019-05-11T16:12:23.730Z,18.40
2019-05-11T16:14:53.625Z,15.77
2019-05-11T16:17:31.942Z,16.13
2019-05-11T16:20:01.638Z,14.17
2019-05-11T16:22:29.139Z,15.97
2019-05-11T16:24:58.398Z,15.70
2019-05-11T16:27:28.522Z,14.77
2019-05-11T16:29:58.068Z,15.53
2019-05-11T16:32:43.635Z,16.87
2019-05-11T16:35:13.293Z,16.03
2019-05-11T16:38:00.022Z,15.30
2019-05-11T16:40:33.356Z,13.20
2019-05-11T16:43:08.397Z,12.40
2019-05-11T16:45:42.534Z,13.70
2019-05-11T16:48:14.609Z,11.63
2019-05-11T16:50:52.705Z,12.13
2019-05-11T16:53:29.019Z,11.43
2019-05-11T16:55:58.461Z,12.10
2019-05-11T16:58:30.679Z,11.50
2019-05-11T17:01:00.592Z,12.80
2019-05-11T17:03:32.861Z,12.33
2019-05-11T17:06:03.094Z,14.17
2019-05-11T17:08:34.668Z,11.63
2019-05-11T17:11:03.826Z,13.67
2019-05-11T17:13:37.761Z,10.70
2019-05-11T17:16:08.419Z,11.80
2019-05-11T17:18:48.606Z,12.70
2019-05-11T17:21:18.338Z,14.00
2019-05-11T17:23:53.478Z,12.53
2019-05-11T17:26:27.830Z,11.60
2019-05-11T17:29:01.226Z,13.90
2019-05-11T17:31:31.883Z,13.43
2019-05-11T17:34:08.985Z,14.40
2019-05-11T17:36:36.868Z,11.40
2019-05-11T17:39:14.816Z,15.70
2019-05-11T17:41:48.553Z,15.23
2019-05-11T17:44:42.138Z,14.57
2019-05-11T17:46:58.418Z,12.63
2019-05-11T17:49:32.180Z,15.60
2019-05-11T17:52:01.537Z,15.27
2019-05-11T17:54:33.985Z,13.57
2019-05-11T17:57:14.298Z,14.47
2019-05-11T17:59:47.637Z,13.60
2019-05-11T18:02:19.439Z,17.03
2019-05-11T18:04:58.452Z,12.90
2019-05-11T18:07:30.665Z,12.20
2019-05-11T18:09:58.733Z,13.10
2019-05-11T18:12:31.173Z,11.80
2019-05-11T18:15:00.699Z,14.83
2019-05-11T18:20:33.702Z,10.43
2019-05-11T18:23:04.593Z,11.37
2019-05-11T18:25:38.997Z,12.23
2019-05-11T18:28:14.246Z,11.47
2019-05-11T18:30:42.985Z,11.27
2019-05-11T18:33:12.445Z,13.03
2019-05-11T18:35:41.800Z,11.60
2019-05-11T18:38:11.250Z,13.33
2019-05-11T18:40:41.412Z,11.53
2019-05-11T18:43:13.325Z,10.70
2019-05-11T18:45:42.320Z,13.20
2019-05-11T18:48:18.516Z,12.27
2019-05-11T18:50:49.754Z,12.13
2019-05-11T18:53:21.695Z,14.23
2019-05-11T18:55:51.135Z,15.40
2019-05-11T18:58:24.384Z,14.77
2019-05-11T19:01:12.545Z,13.93
2019-05-11T19:03:47.900Z,14.07
2019-05-11T19:06:18.417Z,14.63
2019-05-11T19:08:50.411Z,14.63
2019-05-11T19:11:22.376Z,16.93
2019-05-11T19:13:51.503Z,16.87
2019-05-11T19:16:33.167Z,21.20
2019-05-11T19:19:05.138Z,19.80
2019-05-11T19:21:37.135Z,15.30
2019-05-11T19:24:13.065Z,15.13
2019-05-11T19:26:42.542Z,15.83
2019-05-11T19:29:11.890Z,16.03
2019-05-11T19:31:47.645Z,19.37
2019-05-11T19:34:21.022Z,17.47
2019-05-11T19:37:08.719Z,18.33
2019-05-11T19:39:39.324Z,17.43
2019-05-11T19:42:14.107Z,19.37
2019-05-11T19:44:43.740Z,19.90
2019-05-11T19:47:18.206Z,18.37
2019-05-11T19:49:54.760Z,21.23
2019-05-11T19:52:31.223Z,18.63
2019-05-11T19:55:03.861Z,19.53
2019-05-11T19:57:35.178Z,17.80
2019-05-11T20:00:10.345Z,19.73
2019-05-11T20:02:42.784Z,18.90
2019-05-11T20:05:14.425Z,20.93
2019-05-11T20:07:45.356Z,19.17
2019-05-11T20:10:29.084Z,17.43
2019-05-11T20:12:58.963Z,12.37
2019-05-11T20:15:30.877Z,15.43
2019-05-11T20:18:02.449Z,15.70
2019-05-11T20:20:37.615Z,13.47
2019-05-11T20:23:14.208Z,11.93
2019-05-11T20:25:44.856Z,13.07
2019-05-11T20:28:15.172Z,14.70
2019-05-11T20:30:48.047Z,15.30
2019-05-11T20:33:24.582Z,15.77
2019-05-11T20:35:51.552Z,15.77
2019-05-11T20:38:22.154Z,13.53
2019-05-11T20:58:38.872Z,14.93
2019-05-11T21:01:09.844Z,9.70
2019-05-11T21:06:29.336Z,11.60
2019-05-11T21:08:58.864Z,8.40
2019-05-11T21:12:13.422Z,8.60
2019-05-11T21:14:43.777Z,9.30
2019-05-11T21:17:12.801Z,7.03
2019-05-11T21:19:42.771Z,11.87
2019-05-11T21:22:16.767Z,11.93
2019-05-11T21:25:31.210Z,9.10
2019-05-11T21:28:00.422Z,10.13
2019-05-11T21:30:34.058Z,8.23
2019-05-11T21:33:38.942Z,8.50
2019-05-11T21:36:09.475Z,8.10
2019-05-11T21:38:41.123Z,8.57
2019-05-11T21:41:17.526Z,10.43
2019-05-11T21:43:48.335Z,10.27
2019-05-11T21:46:56.227Z,6.97
2019-05-11T21:49:25.528Z,10.63
2019-05-11T21:52:03.896Z,11.30
2019-05-11T21:54:49.071Z,9.40
2019-05-11T21:58:10.598Z,8.37
2019-05-11T22:00:40.048Z,9.57
2019-05-11T22:03:10.319Z,6.20
2019-05-11T22:05:48.495Z,8.13
2019-05-11T22:08:28.206Z,8.33
2019-05-11T22:18:41.107Z,8.60
2019-05-11T22:21:13.706Z,7.70
2019-05-11T22:23:50.784Z,7.33
2019-05-11T22:27:01.775Z,14.30
2019-05-11T22:29:40.882Z,10.23
2019-05-11T22:32:09.918Z,8.90
2019-05-11T22:34:44.819Z,5.77
2019-05-11T22:37:16.064Z,9.33
2019-05-11T22:39:44.953Z,6.83
2019-05-11T22:42:13.936Z,6.37
2019-05-11T22:44:43.008Z,6.93
2019-05-11T22:48:02.545Z,4.83
2019-05-11T22:50:31.863Z,12.43
2019-05-11T22:53:02.293Z,5.77
2019-05-11T22:55:58.421Z,7.87
2019-05-11T22:58:31.942Z,8.33
2019-05-11T23:01:01.336Z,4.90
2019-05-11T23:03:30.619Z,5.27
2019-05-11T23:05:59.610Z,7.23
2019-05-11T23:08:30.381Z,5.67
2019-05-11T23:11:12.632Z,4.60
2019-05-11T23:13:42.027Z,4.47
2019-05-11T23:17:02.050Z,5.97
2019-05-11T23:19:31.261Z,6.77
2019-05-11T23:22:00.675Z,6.03
2019-05-11T23:38:39.279Z,6.07
2019-05-11T23:41:23.742Z,9.93
2019-05-11T23:43:47.655Z,10.73
2019-05-11T23:46:21.152Z,5.13
2019-05-11T23:48:50.319Z,7.50
2019-05-11T23:51:20.347Z,9.87
2019-05-11T23:53:52.649Z,8.33
2019-05-11T23:56:29.726Z,7.10
2019-05-11T23:58:58.591Z,10.00
